Time;durP1;ratioP1;P1;durP2;ratioP2;P2;SDS_P1;SDS_P2;PMS_P1;PMS_P2;Temp;Humidity;BMP_temperature;BMP_pressure;BME280_temperature;BME280_humidity;BME280_pressure;Samples;Min_cycle;Max_cycle;Signal;HPM_P1;HPM_P2
2024/04/14 00:02:02;;;;;;;5.23;4.83;;;17.60;30.80;;;;;;11158722;26;20333;-70
2024/04/14 00:07:11;;;;;;;4.73;4.33;;;17.60;30.20;;;;;;11144629;26;20649;-70
2024/04/14 00:12:18;;;;;;;5.27;4.73;;;17.50;30.20;;;;;;11146530;26;20976;-70
2024/04/14 00:17:23;;;;;;;5.73;5.00;;;17.40;30.70;;;;;;11129092;26;20398;-71
2024/04/14 00:22:29;;;;;;;5.17;4.77;;;17.30;30.30;;;;;;11140088;26;20304;-71
2024/04/14 00:27:36;;;;;;;5.33;4.83;;;17.30;30.50;;;;;;11150133;26;20254;-70
2024/04/14 00:32:42;;;;;;;6.30;5.80;;;17.20;31.10;;;;;;11150199;26;20266;-70
2024/04/14 00:37:47;;;;;;;6.33;5.73;;;17.20;30.60;;;;;;11147371;26;20717;-70
2024/04/14 00:43:00;;;;;;;6.67;5.27;;;17.00;30.50;;;;;;11145016;26;20372;-70
2024/04/14 00:48:07;;;;;;;5.77;5.27;;;16.80;31.90;;;;;;11148811;26;20263;-70
2024/04/14 00:53:13;;;;;;;6.30;5.70;;;16.60;31.00;;;;;;11151697;26;20262;-70
2024/04/14 00:58:21;;;;;;;5.93;5.43;;;16.50;31.40;;;;;;11145715;26;20303;-70
2024/04/14 01:03:26;;;;;;;5.60;5.20;;;16.50;32.20;;;;;;11146941;26;20259;-70
2024/04/14 01:08:32;;;;;;;6.57;5.53;;;16.50;31.40;;;;;;11158777;26;20345;-70
2024/04/14 01:13:40;;;;;;;5.57;5.07;;;16.40;31.50;;;;;;11145435;26;20290;-70
2024/04/14 01:18:45;;;;;;;5.87;4.80;;;16.40;31.90;;;;;;11150264;26;20318;-70
2024/04/14 01:23:50;;;;;;;5.43;4.93;;;16.40;31.30;;;;;;11148862;26;20262;-70
2024/04/14 01:28:58;;;;;;;6.10;4.90;;;16.40;31.30;;;;;;11152443;26;20808;-70
2024/04/14 01:34:03;;;;;;;5.53;5.03;;;16.40;31.90;;;;;;11143000;26;20310;-70
2024/04/14 01:39:08;;;;;;;5.83;5.30;;;16.40;31.40;;;;;;11151746;26;20259;-70
2024/04/14 01:44:16;;;;;;;5.40;5.00;;;16.40;31.40;;;;;;11147788;26;20357;-70
2024/04/14 01:49:21;;;;;;;5.17;4.77;;;16.40;31.90;;;;;;11153646;26;21024;-70
2024/04/14 01:54:26;;;;;;;5.93;4.77;;;16.40;31.50;;;;;;11144803;26;20262;-71
2024/04/14 01:59:34;;;;;;;6.83;5.40;;;16.30;31.50;;;;;;11150620;26;20261;-70
2024/04/14 02:04:39;;;;;;;5.97;5.37;;;16.20;32.20;;;;;;11151054;26;20297;-70
2024/04/14 02:09:44;;;;;;;6.00;5.40;;;16.10;31.50;;;;;;11148046;26;20321;-70
2024/04/14 02:14:52;;;;;;;8.00;5.77;;;16.00;31.70;;;;;;11152668;26;20977;-70
2024/04/14 02:19:57;;;;;;;8.17;5.33;;;15.80;32.80;;;;;;11148680;26;20267;-70
2024/04/14 02:25:02;;;;;;;6.13;5.53;;;15.50;32.10;;;;;;11155942;26;20623;-70
2024/04/14 02:30:11;;;;;;;5.07;4.67;;;15.30;32.30;;;;;;11159043;26;20259;-70
2024/04/14 02:35:16;;;;;;;6.23;5.53;;;15.20;33.00;;;;;;11147795;26;20258;-70
2024/04/14 02:40:22;;;;;;;5.80;5.30;;;15.00;32.10;;;;;;11151687;26;20965;-70
2024/04/14 02:45:31;;;;;;;5.07;4.63;;;14.80;32.50;;;;;;11151170;26;20271;-70
2024/04/14 02:50:36;;;;;;;5.53;5.00;;;14.70;33.70;;;;;;11150058;26;20263;-70
2024/04/14 02:55:41;;;;;;;5.20;4.70;;;14.70;33.00;;;;;;11147621;26;20259;-70
2024/04/14 03:00:48;;;;;;;6.23;4.93;;;14.70;32.90;;;;;;11158768;26;20259;-70
2024/04/14 03:06:01;;;;;;;5.77;5.37;;;14.60;33.70;;;;;;11158060;26;20310;-70
2024/04/14 03:11:07;;;;;;;5.30;4.90;;;14.50;34.40;;;;;;11153086;26;20641;-70
2024/04/14 03:16:15;;;;;;;5.13;4.63;;;14.50;33.10;;;;;;11154929;26;20651;-70
2024/04/14 03:21:20;;;;;;;5.90;4.80;;;14.40;33.90;;;;;;11147428;26;20273;-70
2024/04/14 03:26:29;;;;;;;5.00;4.60;;;14.30;33.20;;;;;;11151324;26;20310;-70
2024/04/14 03:31:36;;;;;;;4.93;4.53;;;14.20;33.80;;;;;;11166388;26;20732;-70
2024/04/14 03:36:42;;;;;;;4.97;4.57;;;14.10;34.40;;;;;;11146505;26;20788;-70
2024/04/14 03:41:47;;;;;;;4.97;4.57;;;14.00;33.70;;;;;;11161015;26;20285;-71
2024/04/14 03:46:54;;;;;;;4.67;4.27;;;13.90;33.90;;;;;;11161409;26;20277;-70
2024/04/14 03:51:59;;;;;;;5.53;5.03;;;13.70;34.80;;;;;;11152703;26;20788;-70
2024/04/14 03:57:04;;;;;;;5.27;4.77;;;13.70;34.20;;;;;;11156612;26;20359;-70
2024/04/14 04:02:12;;;;;;;5.07;4.63;;;13.60;34.30;;;;;;11156497;26;20258;-70
2024/04/14 04:07:17;;;;;;;5.37;4.83;;;13.50;35.00;;;;;;11163589;26;20288;-70
2024/04/14 04:12:23;;;;;;;5.77;4.87;;;13.50;34.30;;;;;;11163405;26;20259;-70
2024/04/14 04:17:30;;;;;;;4.73;4.33;;;13.60;34.40;;;;;;11162520;26;20304;-70
2024/04/14 04:22:35;;;;;;;5.00;4.60;;;13.60;35.10;;;;;;11153354;26;20281;-70
2024/04/14 04:27:40;;;;;;;4.40;4.00;;;13.70;34.40;;;;;;11152158;26;20290;-70
2024/04/14 04:32:48;;;;;;;4.50;4.10;;;13.70;34.30;;;;;;11148168;26;20367;-71
2024/04/14 04:37:53;;;;;;;5.73;5.23;;;13.70;34.80;;;;;;11161243;26;20750;-70
2024/04/14 04:42:58;;;;;;;5.90;5.10;;;13.80;34.30;;;;;;11151402;26;20258;-70
2024/04/14 04:48:07;;;;;;;5.33;4.30;;;13.80;34.20;;;;;;11153220;26;20259;-70
2024/04/14 04:53:12;;;;;;;5.20;4.70;;;13.80;34.90;;;;;;11104690;26;20263;-70
2024/04/14 04:58:17;;;;;;;5.70;4.87;;;13.90;34.20;;;;;;11153624;26;20258;-70
2024/04/14 05:03:26;;;;;;;5.07;4.57;;;13.70;34.30;;;;;;11157557;26;20350;-70
2024/04/14 05:08:36;;;;;;;5.60;5.10;;;13.70;35.30;;;;;;11149677;26;20254;-71
2024/04/14 05:13:41;;;;;;;5.27;4.77;;;13.70;34.70;;;;;;11136864;26;21116;-71
2024/04/14 05:18:49;;;;;;;5.73;4.13;;;13.70;34.70;;;;;;11145377;26;20355;-70
2024/04/14 05:23:54;;;;;;;5.17;4.77;;;13.70;35.60;;;;;;11152742;26;20308;-70
2024/04/14 05:28:59;;;;;;;4.87;4.00;;;13.70;35.00;;;;;;11157667;26;21287;-70
2024/04/14 05:34:06;;;;;;;4.97;3.60;;;13.80;35.10;;;;;;11146380;26;20264;-70
2024/04/14 05:39:11;;;;;;;4.40;4.00;;;13.80;36.10;;;;;;11145260;26;20776;-70
2024/04/14 05:44:16;;;;;;;4.77;4.00;;;13.90;35.50;;;;;;11156212;26;20312;-70
2024/04/14 05:49:24;;;;;;;4.33;3.93;;;13.90;35.60;;;;;;11146991;26;20314;-71
2024/04/14 05:54:30;;;;;;;4.70;4.20;;;14.10;36.80;;;;;;11159183;26;20260;-70
2024/04/14 05:59:35;;;;;;;4.53;3.93;;;14.20;36.00;;;;;;11152314;26;20257;-71
2024/04/14 06:04:42;;;;;;;4.50;4.10;;;14.30;36.20;;;;;;11152917;26;20293;-70
2024/04/14 06:09:47;;;;;;;4.30;3.90;;;14.40;37.20;;;;;;11156594;26;20259;-70
2024/04/14 06:14:52;;;;;;;4.83;4.43;;;14.50;36.60;;;;;;11162587;26;20264;-70
2024/04/14 06:20:00;;;;;;;4.53;4.17;;;14.70;36.80;;;;;;11152971;26;20247;-71
2024/04/14 06:25:05;;;;;;;5.73;4.23;;;14.90;38.10;;;;;;11147197;26;21398;-70
2024/04/14 06:30:12;;;;;;;4.40;4.00;;;15.10;37.30;;;;;;11128658;26;20263;-70
2024/04/14 06:35:20;;;;;;;4.40;4.10;;;15.20;37.40;;;;;;11149615;26;20306;-71
2024/04/14 06:40:25;;;;;;;4.40;4.00;;;15.40;38.30;;;;;;11152030;26;20259;-71
2024/04/14 06:45:30;;;;;;;4.13;3.83;;;15.70;37.60;;;;;;11159049;26;20259;-70
2024/04/14 06:50:37;;;;;;;4.40;4.00;;;15.90;37.70;;;;;;11153762;26;20255;-71
2024/04/14 06:55:44;;;;;;;5.13;4.30;;;16.10;38.50;;;;;;11153597;26;20309;-70
2024/04/14 07:00:49;;;;;;;4.70;3.93;;;16.30;37.90;;;;;;11153389;26;20263;-71
2024/04/14 07:05:56;;;;;;;5.07;4.10;;;16.60;38.10;;;;;;11151064;26;20288;-71
2024/04/14 07:11:01;;;;;;;5.20;4.10;;;16.90;39.00;;;;;;11156307;26;20310;-70
2024/04/14 07:16:07;;;;;;;4.10;3.80;;;17.20;38.20;;;;;;11097376;26;20285;-70
2024/04/14 07:21:15;;;;;;;4.40;4.00;;;17.50;38.40;;;;;;11146860;26;20260;-70
2024/04/14 07:26:20;;;;;;;4.17;3.70;;;17.80;38.60;;;;;;11155570;26;20298;-70
2024/04/14 07:31:25;;;;;;;4.17;3.40;;;18.10;38.00;;;;;;11145326;26;20263;-71
2024/04/14 07:36:32;;;;;;;3.83;3.43;;;18.40;37.50;;;;;;11157596;26;20302;-70
2024/04/14 07:41:38;;;;;;;2.57;2.37;;;18.70;38.20;;;;;;11155048;26;20263;-70
2024/04/14 07:46:43;;;;;;;2.77;2.50;;;19.00;37.10;;;;;;11145440;26;20252;-71
2024/04/14 07:51:50;;;;;;;3.17;2.60;;;19.30;36.60;;;;;;11153643;26;20267;-71
2024/04/14 07:56:55;;;;;;;3.43;2.53;;;19.50;36.00;;;;;;11156264;26;20404;-71
2024/04/14 08:02:00;;;;;;;2.67;2.40;;;19.90;36.40;;;;;;11151470;26;20252;-71
2024/04/14 08:07:08;;;;;;;2.70;2.50;;;20.20;36.30;;;;;;11151887;26;20319;-71
2024/04/14 08:12:13;;;;;;;2.60;2.40;;;20.50;35.20;;;;;;11146226;26;20293;-71
2024/04/14 08:17:18;;;;;;;2.53;2.30;;;20.80;35.40;;;;;;11155800;26;20297;-71
2024/04/14 08:22:26;;;;;;;3.70;2.53;;;21.00;35.10;;;;;;11151628;26;20301;-71
2024/04/14 08:27:31;;;;;;;2.70;2.50;;;21.20;34.50;;;;;;11150869;26;20320;-71
2024/04/14 08:32:36;;;;;;;2.50;2.30;;;21.50;34.50;;;;;;11157726;26;20305;-70
2024/04/14 08:37:43;;;;;;;2.77;2.40;;;21.70;34.60;;;;;;11154712;26;20267;-71
2024/04/14 08:42:49;;;;;;;2.67;2.43;;;21.90;33.40;;;;;;11160086;26;20263;-70
2024/04/14 08:47:55;;;;;;;2.50;2.30;;;22.20;33.60;;;;;;11164655;26;20696;-70
2024/04/14 08:53:05;;;;;;;2.47;2.27;;;22.30;33.30;;;;;;11155355;26;20254;-71
2024/04/14 08:58:12;;;;;;;3.37;2.30;;;22.50;32.40;;;;;;11105021;26;20373;-70
2024/04/14 09:03:17;;;;;;;2.77;2.57;;;22.70;31.80;;;;;;11146095;26;20266;-70
2024/04/14 09:08:25;;;;;;;2.97;2.33;;;22.80;32.60;;;;;;11131440;26;20313;-72
2024/04/14 09:13:30;;;;;;;2.20;2.00;;;23.00;31.40;;;;;;11150267;26;20641;-71
2024/04/14 09:18:37;;;;;;;2.80;2.20;;;23.20;32.00;;;;;;11145549;26;20258;-71
2024/04/14 09:23:45;;;;;;;3.17;2.23;;;23.40;31.50;;;;;;11145195;26;20357;-72
2024/04/14 09:28:49;;;;;;;2.23;2.03;;;23.50;30.70;;;;;;11150245;26;20749;-71
2024/04/14 09:33:55;;;;;;;2.40;1.87;;;23.70;31.00;;;;;;11146047;26;20262;-71
2024/04/14 09:39:05;;;;;;;2.03;1.83;;;24.00;30.80;;;;;;11142775;26;20262;-71
2024/04/14 09:44:12;;;;;;;2.40;2.07;;;24.20;29.90;;;;;;11108565;26;20267;-73
2024/04/14 09:49:19;;;;;;;2.23;2.03;;;24.30;30.00;;;;;;11117026;26;20310;-72
2024/04/14 09:54:30;;;;;;;1.80;1.70;;;24.40;29.70;;;;;;11116301;26;20850;-71
2024/04/14 09:59:35;;;;;;;2.10;1.90;;;24.50;28.90;;;;;;11117663;26;20353;-71
2024/04/14 10:04:44;;;;;;;2.33;1.60;;;24.60;29.90;;;;;;11121672;26;20309;-71
2024/04/14 10:09:52;;;;;;;2.33;2.00;;;24.70;29.60;;;;;;11112250;26;20302;-71
2024/04/14 10:14:57;;;;;;;1.87;1.77;;;24.90;28.60;;;;;;11129217;26;20732;-71
2024/04/14 10:20:05;;;;;;;2.50;1.90;;;24.90;28.60;;;;;;11122488;26;20259;-71
2024/04/14 10:25:25;;;;;;;2.50;2.20;;;25.00;28.70;;;;;;11125443;26;20313;-71
2024/04/14 10:30:31;;;;;;;2.40;2.13;;;25.00;27.50;;;;;;11129284;26;20325;-71
2024/04/14 10:35:36;;;;;;;2.20;2.00;;;25.00;28.10;;;;;;11127558;26;21073;-71
2024/04/14 10:40:44;;;;;;;2.53;2.20;;;25.00;28.30;;;;;;11123841;26;20305;-73
2024/04/14 10:45:49;;;;;;;2.10;1.80;;;25.00;27.80;;;;;;11128227;26;20995;-71
2024/04/14 10:50:54;;;;;;;2.00;1.90;;;25.10;28.70;;;;;;11139227;26;20330;-71
2024/04/14 10:56:02;;;;;;;2.00;1.90;;;25.20;28.20;;;;;;11122737;26;20392;-71
2024/04/14 11:01:07;;;;;;;1.70;1.60;;;25.30;27.10;;;;;;11126850;26;20409;-71
2024/04/14 11:06:13;;;;;;;3.00;1.80;;;25.40;27.90;;;;;;11137129;26;20317;-72
2024/04/14 11:11:21;;;;;;;2.20;1.93;;;25.40;27.60;;;;;;11143257;26;20303;-71
2024/04/14 11:16:26;;;;;;;1.77;1.67;;;25.50;26.80;;;;;;11142637;26;20263;-72
2024/04/14 11:21:32;;;;;;;1.87;1.70;;;25.60;27.70;;;;;;11111837;26;20427;-71
2024/04/14 11:26:40;;;;;;;4.60;1.80;;;25.70;27.40;;;;;;11090215;26;20368;-73
2024/04/14 11:31:45;;;;;;;1.77;1.60;;;25.80;26.30;;;;;;11095831;26;20251;-71
2024/04/14 11:36:50;;;;;;;2.20;1.70;;;26.00;26.30;;;;;;11144806;26;20251;-71
2024/04/14 11:41:57;;;;;;;1.67;1.57;;;26.00;25.80;;;;;;11146445;26;20392;-72
2024/04/14 11:47:03;;;;;;;1.70;1.60;;;26.10;25.00;;;;;;11149725;26;21084;-72
2024/04/14 11:52:08;;;;;;;1.90;1.80;;;26.10;25.40;;;;;;11148985;26;20307;-72
2024/04/14 11:57:17;;;;;;;3.63;1.50;;;26.10;25.20;;;;;;11152694;26;20800;-72
2024/04/14 12:02:23;;;;;;;1.80;1.70;;;26.20;24.30;;;;;;11154551;26;20263;-71
2024/04/14 12:07:28;;;;;;;1.80;1.70;;;26.10;25.00;;;;;;11148293;26;20371;-71
2024/04/14 12:12:35;;;;;;;1.70;1.60;;;26.30;24.70;;;;;;11147799;26;20262;-72
2024/04/14 12:17:40;;;;;;;2.13;1.73;;;26.30;23.90;;;;;;11156527;26;20304;-72
2024/04/14 12:22:45;;;;;;;1.90;1.80;;;26.30;24.70;;;;;;11159598;26;20351;-71
2024/04/14 12:27:54;;;;;;;2.10;1.83;;;26.40;24.30;;;;;;11156624;26;20266;-71
2024/04/14 12:33:01;;;;;;;1.70;1.60;;;26.40;23.60;;;;;;11139398;26;20271;-71
2024/04/14 12:38:06;;;;;;;2.40;1.70;;;26.50;24.60;;;;;;11138116;26;20305;-73
2024/04/14 12:43:14;;;;;;;1.93;1.60;;;26.60;24.40;;;;;;11144353;26;20628;-71
2024/04/14 12:48:20;;;;;;;2.40;2.00;;;26.70;23.70;;;;;;11141231;26;20680;-71
2024/04/14 12:53:25;;;;;;;1.67;1.40;;;26.70;24.10;;;;;;11140970;26;20382;-71
2024/04/14 12:58:32;;;;;;;2.00;1.70;;;26.80;24.50;;;;;;11150679;26;20252;-72
2024/04/14 13:03:37;;;;;;;1.80;1.70;;;26.80;23.20;;;;;;11142418;26;20258;-71
2024/04/14 13:08:42;;;;;;;1.77;1.63;;;26.90;23.70;;;;;;11145383;26;20258;-71
2024/04/14 13:13:50;;;;;;;1.53;1.43;;;26.90;23.90;;;;;;11150694;26;20263;-72
2024/04/14 13:18:55;;;;;;;1.80;1.70;;;26.90;23.10;;;;;;11154635;26;20263;-71
2024/04/14 13:24:00;;;;;;;2.07;1.53;;;26.90;23.50;;;;;;11144665;26;21461;-71
2024/04/14 13:29:08;;;;;;;1.80;1.70;;;26.90;23.40;;;;;;11157089;26;20293;-71
2024/04/14 13:34:13;;;;;;;2.10;1.90;;;27.00;23.30;;;;;;11142436;26;20259;-71
2024/04/14 13:39:18;;;;;;;1.90;1.80;;;27.10;23.00;;;;;;11148111;26;20302;-71
2024/04/14 13:44:26;;;;;;;1.70;1.60;;;27.10;23.10;;;;;;11153207;26;20278;-71
2024/04/14 13:49:31;;;;;;;2.03;1.70;;;27.10;22.60;;;;;;11145211;26;20866;-71
2024/04/14 13:54:39;;;;;;;2.03;1.90;;;27.10;22.90;;;;;;11149610;26;20254;-71
2024/04/14 13:59:47;;;;;;;1.73;1.63;;;27.10;23.20;;;;;;11150395;26;20255;-72
2024/04/14 14:04:52;;;;;;;1.90;1.70;;;27.20;22.50;;;;;;11142713;26;20255;-72
2024/04/14 14:09:57;;;;;;;1.93;1.70;;;27.20;22.80;;;;;;11139754;26;20263;-71
2024/04/14 14:15:05;;;;;;;2.00;1.90;;;27.30;22.70;;;;;;11141443;26;20340;-71
2024/04/14 14:20:11;;;;;;;2.07;1.90;;;27.20;22.20;;;;;;11145470;26;20262;-71
2024/04/14 14:25:16;;;;;;;2.00;1.90;;;27.20;22.60;;;;;;11145810;26;20257;-71
2024/04/14 14:30:24;;;;;;;1.77;1.67;;;27.20;22.80;;;;;;11132911;26;20305;-71
2024/04/14 14:40:49;;;;;;;3.37;2.07;;;27.30;22.90;;;;;;11134969;26;20267;-71
2024/04/14 14:45:57;;;;;;;2.27;1.90;;;27.30;23.00;;;;;;11128909;26;20262;-71
2024/04/14 14:51:02;;;;;;;3.00;1.90;;;27.40;22.60;;;;;;11138531;26;20258;-72
2024/04/14 14:56:09;;;;;;;1.93;1.70;;;27.40;22.90;;;;;;11126225;26;20254;-71
2024/04/14 15:01:17;;;;;;;1.90;1.70;;;27.40;22.80;;;;;;11128915;26;20309;-71
2024/04/14 15:06:22;;;;;;;2.33;1.90;;;27.40;22.60;;;;;;11134718;26;20254;-71
2024/04/14 15:11:27;;;;;;;2.03;1.93;;;27.50;22.90;;;;;;11150023;26;20764;-72
2024/04/14 15:16:34;;;;;;;1.80;1.70;;;27.50;22.60;;;;;;11136576;26;20266;-71
2024/04/14 15:21:39;;;;;;;1.80;1.70;;;27.50;22.40;;;;;;11140479;26;20291;-71
2024/04/14 15:26:44;;;;;;;2.13;1.70;;;27.50;22.60;;;;;;11138842;26;21355;-72
2024/04/14 15:31:53;;;;;;;1.80;1.70;;;27.50;22.70;;;;;;11116460;26;20659;-71
2024/04/14 15:36:58;;;;;;;2.00;1.90;;;27.50;22.10;;;;;;11128469;26;20745;-71
2024/04/14 15:42:03;;;;;;;2.10;1.80;;;27.50;22.40;;;;;;11127784;26;20281;-71
2024/04/14 15:47:11;;;;;;;3.40;1.80;;;27.50;22.70;;;;;;11136759;26;21087;-68
2024/04/14 15:52:16;;;;;;;2.20;2.00;;;27.50;22.10;;;;;;11127688;26;20266;-69
2024/04/14 15:57:21;;;;;;;1.70;1.60;;;27.40;22.30;;;;;;11136267;26;20282;-71
2024/04/14 16:02:41;;;;;;;2.20;2.10;;;27.40;22.50;;;;;;11125781;26;20258;-76
2024/04/14 16:07:46;;;;;;;1.90;1.80;;;27.40;22.20;;;;;;11135863;26;20608;-71
2024/04/14 16:12:51;;;;;;;1.60;1.50;;;27.40;22.50;;;;;;11128105;26;20302;-71
2024/04/14 16:17:59;;;;;;;2.27;1.70;;;27.40;22.20;;;;;;11134498;26;20401;-72
2024/04/14 16:23:07;;;;;;;3.57;1.73;;;27.30;21.90;;;;;;11135979;26;20935;-71
2024/04/14 16:28:12;;;;;;;2.57;1.53;;;27.30;22.20;;;;;;11141887;26;20351;-71
2024/04/14 16:33:19;;;;;;;1.83;1.73;;;27.30;22.30;;;;;;11136094;26;20297;-71
2024/04/14 16:38:24;;;;;;;1.90;1.70;;;27.30;22.20;;;;;;11136089;26;20267;-71
2024/04/14 16:43:29;;;;;;;1.70;1.60;;;27.20;22.40;;;;;;11144623;26;20650;-71
2024/04/14 16:48:37;;;;;;;1.73;1.63;;;27.20;22.40;;;;;;11136040;26;20692;-71
2024/04/14 16:53:42;;;;;;;1.70;1.60;;;27.20;22.20;;;;;;11146976;26;20254;-71
2024/04/14 16:58:47;;;;;;;1.70;1.60;;;27.20;22.30;;;;;;11148021;26;20262;-71
2024/04/14 17:03:55;;;;;;;1.90;1.80;;;27.20;22.30;;;;;;11149199;26;20731;-71
2024/04/14 17:09:00;;;;;;;3.67;1.80;;;27.20;22.60;;;;;;11147212;26;20293;-72
2024/04/14 17:14:05;;;;;;;2.23;2.00;;;27.20;22.80;;;;;;11146214;26;20306;-71
2024/04/14 17:19:13;;;;;;;1.90;1.70;;;27.10;22.90;;;;;;11148785;26;20310;-72
2024/04/14 17:24:18;;;;;;;1.77;1.60;;;27.10;22.50;;;;;;11139252;26;20262;-71
2024/04/14 17:29:23;;;;;;;1.90;1.80;;;27.00;22.70;;;;;;11141315;26;20262;-71
2024/04/14 17:34:31;;;;;;;1.80;1.70;;;26.90;22.60;;;;;;11147075;26;20255;-71
2024/04/14 17:39:36;;;;;;;2.00;1.70;;;26.80;22.70;;;;;;11137931;26;20780;-72
2024/04/14 17:44:41;;;;;;;1.93;1.83;;;26.80;23.50;;;;;;11137701;26;20314;-72
2024/04/14 17:49:49;;;;;;;2.63;2.33;;;26.70;23.10;;;;;;11132500;26;20263;-72
2024/04/14 17:54:54;;;;;;;3.63;3.30;;;26.60;23.40;;;;;;11123562;26;20745;-72
2024/04/14 17:59:59;;;;;;;5.37;4.87;;;26.50;23.50;;;;;;11127011;26;21101;-71
2024/04/14 18:05:08;;;;;;;10.00;9.10;;;26.50;23.60;;;;;;11135970;26;20305;-72
2024/04/14 18:10:13;;;;;;;8.40;7.70;;;26.40;24.00;;;;;;11143106;26;20262;-71
2024/04/14 18:15:18;;;;;;;5.90;5.50;;;26.30;23.90;;;;;;11138684;26;20270;-72
2024/04/14 18:20:26;;;;;;;4.50;4.20;;;26.20;24.10;;;;;;11144521;26;20398;-71
2024/04/14 18:25:31;;;;;;;3.60;3.23;;;26.10;24.30;;;;;;11147915;26;20302;-72
2024/04/14 18:30:38;;;;;;;3.60;3.30;;;26.00;24.40;;;;;;11145690;26;20262;-72
2024/04/14 18:35:56;;;;;;;3.13;2.93;;;25.90;24.70;;;;;;11150980;26;21401;-71
2024/04/14 18:41:10;;;;;;;3.57;2.77;;;25.70;24.80;;;;;;11149166;26;20277;-71
2024/04/14 18:46:15;;;;;;;2.53;2.27;;;25.50;24.50;;;;;;11147672;26;20259;-71
2024/04/14 18:51:23;;;;;;;3.23;2.90;;;25.20;24.90;;;;;;11152601;26;21134;-71
2024/04/14 18:56:28;;;;;;;3.27;3.00;;;25.00;25.40;;;;;;11134345;26;20749;-71
2024/04/14 19:01:33;;;;;;;3.63;3.30;;;24.90;25.30;;;;;;11151636;26;20321;-72
2024/04/14 19:06:41;;;;;;;4.53;3.63;;;24.70;25.40;;;;;;11156851;26;20359;-72
2024/04/14 19:11:46;;;;;;;2.90;2.70;;;24.70;25.80;;;;;;11157239;26;20752;-71
2024/04/14 19:16:51;;;;;;;2.90;2.70;;;24.60;25.50;;;;;;11140811;26;20293;-71
2024/04/14 19:21:58;;;;;;;2.63;2.43;;;24.50;25.70;;;;;;11153902;26;20303;-71
2024/04/14 19:27:03;;;;;;;3.60;3.30;;;24.40;26.00;;;;;;11146251;26;20339;-72
2024/04/14 19:32:09;;;;;;;4.67;4.27;;;24.20;25.60;;;;;;11147715;26;20302;-71
2024/04/14 19:37:17;;;;;;;4.77;4.37;;;23.80;25.70;;;;;;11148980;26;20363;-71
2024/04/14 19:42:22;;;;;;;3.80;3.40;;;23.40;26.60;;;;;;11146562;26;21097;-71
2024/04/14 19:47:27;;;;;;;3.10;2.90;;;23.20;26.40;;;;;;11149492;26;20263;-71
2024/04/14 19:52:35;;;;;;;2.60;2.40;;;23.10;26.70;;;;;;11143851;26;20274;-71
2024/04/14 19:57:40;;;;;;;2.70;2.50;;;22.90;27.30;;;;;;11144982;26;20708;-72
2024/04/14 20:02:46;;;;;;;3.33;2.50;;;22.70;27.10;;;;;;11151807;26;20333;-72
2024/04/14 20:07:55;;;;;;;2.87;2.67;;;22.40;26.90;;;;;;11153698;26;20255;-71
2024/04/14 20:13:00;;;;;;;2.90;2.70;;;22.20;27.70;;;;;;11149652;26;20301;-72
2024/04/14 20:18:06;;;;;;;2.63;2.43;;;22.10;27.20;;;;;;11150791;26;20301;-71
2024/04/14 20:23:14;;;;;;;3.17;2.87;;;22.10;27.50;;;;;;11142108;26;20302;-71
2024/04/14 20:28:19;;;;;;;3.13;2.90;;;21.90;28.10;;;;;;11149313;26;20300;-72
2024/04/14 20:33:25;;;;;;;6.40;2.90;;;21.70;27.80;;;;;;11140520;26;20255;-71
2024/04/14 20:38:32;;;;;;;2.80;2.60;;;21.50;27.90;;;;;;11150767;26;20263;-72
2024/04/14 20:43:37;;;;;;;3.93;2.80;;;21.40;28.50;;;;;;11157415;26;20266;-71
2024/04/14 20:48:42;;;;;;;3.37;2.90;;;21.40;28.10;;;;;;11150551;26;20254;-71
2024/04/14 20:53:50;;;;;;;4.90;2.77;;;21.40;28.10;;;;;;11148126;26;20297;-71
2024/04/14 20:58:55;;;;;;;4.27;2.60;;;21.30;28.50;;;;;;11155481;26;20304;-71
2024/04/14 21:04:00;;;;;;;4.63;3.23;;;21.30;28.10;;;;;;11142519;26;20317;-72
2024/04/14 21:09:08;;;;;;;3.30;3.00;;;21.30;28.20;;;;;;11157045;26;20259;-71
2024/04/14 21:14:13;;;;;;;3.30;2.93;;;21.30;29.00;;;;;;11153647;26;20259;-71
2024/04/14 21:19:18;;;;;;;3.53;3.23;;;21.20;28.40;;;;;;11150873;26;20313;-71
2024/04/14 21:24:25;;;;;;;4.00;3.60;;;21.10;28.50;;;;;;11160489;26;20333;-71
2024/04/14 21:29:30;;;;;;;3.30;3.00;;;21.10;29.20;;;;;;11156469;26;20258;-71
2024/04/14 21:34:37;;;;;;;3.10;2.73;;;21.10;28.70;;;;;;11150595;26;20257;-72
2024/04/14 21:39:44;;;;;;;3.27;2.97;;;21.10;28.70;;;;;;11148324;26;20263;-71
2024/04/14 21:44:49;;;;;;;3.70;3.40;;;21.10;29.30;;;;;;11141376;26;20254;-71
2024/04/14 21:49:57;;;;;;;3.67;3.37;;;21.00;28.60;;;;;;11155834;26;20263;-71
2024/04/14 21:55:05;;;;;;;4.30;3.37;;;20.70;28.60;;;;;;11154567;26;20255;-71
2024/04/14 22:00:12;;;;;;;3.80;3.43;;;20.50;29.50;;;;;;11155706;26;20302;-71
2024/04/14 22:05:17;;;;;;;3.50;3.30;;;20.40;29.30;;;;;;11139004;26;20323;-71
2024/04/14 22:10:25;;;;;;;3.70;3.37;;;20.20;29.10;;;;;;11161706;26;20448;-71
2024/04/14 22:15:30;;;;;;;3.27;2.97;;;20.10;29.90;;;;;;11149886;26;20258;-71
2024/04/14 22:20:35;;;;;;;3.50;3.20;;;20.00;29.40;;;;;;11146619;26;20249;-71
2024/04/14 22:25:42;;;;;;;4.10;3.20;;;20.00;29.50;;;;;;11148035;26;20261;-71
2024/04/14 22:30:48;;;;;;;4.27;3.87;;;19.80;30.10;;;;;;11145441;26;20712;-71
2024/04/14 22:35:53;;;;;;;3.80;3.40;;;19.50;29.80;;;;;;11154361;26;20259;-71
2024/04/14 22:41:00;;;;;;;3.53;3.23;;;19.20;30.20;;;;;;11153755;26;20255;-71
2024/04/14 22:46:06;;;;;;;4.07;3.67;;;19.00;31.30;;;;;;11150477;26;20286;-71
2024/04/14 22:51:11;;;;;;;3.60;3.30;;;19.00;30.90;;;;;;11144906;26;20264;-71
2024/04/14 22:56:18;;;;;;;3.93;3.50;;;19.00;30.80;;;;;;11145837;26;21173;-71
2024/04/14 23:01:24;;;;;;;4.07;3.50;;;18.80;32.00;;;;;;11157840;26;20364;-71
2024/04/14 23:06:29;;;;;;;4.33;3.50;;;18.80;31.30;;;;;;11148579;26;20281;-71
2024/04/14 23:11:37;;;;;;;3.47;3.17;;;18.90;31.30;;;;;;11144639;26;20717;-71
2024/04/14 23:16:42;;;;;;;3.30;3.10;;;19.00;32.50;;;;;;11149374;26;20737;-71
2024/04/14 23:21:47;;;;;;;3.47;3.17;;;19.00;31.20;;;;;;11154249;26;20263;-73
2024/04/14 23:26:55;;;;;;;4.13;3.60;;;19.00;31.30;;;;;;11158835;26;20256;-71
2024/04/14 23:32:00;;;;;;;3.50;3.20;;;19.00;32.30;;;;;;11154496;26;20307;-71
2024/04/14 23:37:06;;;;;;;4.57;3.40;;;18.90;31.30;;;;;;11154990;26;20267;-71
2024/04/14 23:42:13;;;;;;;3.10;2.87;;;18.90;31.40;;;;;;11152220;26;21124;-71
2024/04/14 23:47:18;;;;;;;3.53;3.27;;;18.70;32.20;;;;;;11148443;26;20305;-71
2024/04/14 23:52:23;;;;;;;3.80;3.50;;;18.80;31.70;;;;;;11146850;26;20274;-71
2024/04/14 23:57:31;;;;;;;4.27;3.90;;;18.70;31.60;;;;;;11147781;26;20262;-71
